Jefferson Valley, NY (10535)

1:59 PM EST on February 06, 2016 (GMT -0500)
Jefferson Valley Route 6N | | Change Station
CLOSE
Current Station
Personal Weather Station
Location: Jefferson Valley-Yorktown, NY
Elevation: 564 ft
Nearby Weather Stations

Elev 564 ft 41.34 °N, 73.79 °W | Updated 5 seconds ago

Partly Cloudy
Partly Cloudy
40.6 °F
Feels Like 41 °F
N
0.0
Wind Variable Wind from WSW
Gusts 0.0 mph

Today
High -- | Low -- °F
--% Chance of Precip.
Yesterday
High -- | Low -- °F
Precip. -- in
Pressure 30.32 in
Visibility 10.0 miles
Clouds Clear
Windchill 41 °F
Dew Point 16 °F
Humidity 37%
Rainfall 0.00 in
Snow Depth Not available.
7:01 AM 5:17 PM
Waning Crescent, 4% visible
METAR KDXR 061853Z 19008KT 10SM CLR 03/M09 A3030 RMK AO2 SLP265 T00281094
Pressure 30.32 in
Visibility 10.0 miles
Clouds Clear
Windchill 41 °F
Dew Point 16 °F
Humidity 37%
Rainfall 0.00 in
Snow Depth Not available.
7:01 AM 5:17 PM
Waning Crescent, 4% visible
METAR KDXR 061853Z 19008KT 10SM CLR 03/M09 A3030 RMK AO2 SLP265 T00281094

10-Day Weather Forecast

Almanac

Astronomy

Feb. 06, 2016 Rise Set
Actual Time
Civil Twilight
Nautical Twilight
Astronomical Twilight
Moon
Length of Visible Light
Length of Day
Tomorrow will be .
, % of the Moon is Illuminated

Today's Extremes

State Highs State Lows

Community

WunderPhotos

Upload Photos

1,891,033 photos uploaded!

WunderBlog® & News

Nearby

Air Quality

  Air Quality AQ Index Pollutant
Not available.

Snow Depth

Station Depth Elevation

Earthquake Activity

City Distance Mag. Time & Date
Minimum magnitude displayed is 2.5.

Coastal Water Temperatures

Place Temperature

Stations

Nearby Weather Stations

Station Location Temp. Windchill Dew Point Humidity Wind Precip. Elev Updated Type
                   

Watches & Warnings

There are currently no watches in effect.